Time;durP1;ratioP1;P1;durP2;ratioP2;P2;SDS_P1;SDS_P2;PMS_P1;PMS_P2;Temp;Humidity;BMP_temperature;BMP_pressure;BME280_temperature;BME280_humidity;BME280_pressure;Samples;Min_cycle;Max_cycle;Signal;HPM_P1;HPM_P2
2022/09/06 00:00:41;;;;;;;5.47;4.50;;;;;;;18.44;100.00;96518.75;5008043;28;20203;-76
2022/09/06 00:03:09;;;;;;;5.78;4.30;;;;;;;18.34;100.00;96521.50;5003093;28;20212;-76
2022/09/06 00:05:38;;;;;;;5.93;4.60;;;;;;;18.27;100.00;96513.56;5019046;28;20191;-76
2022/09/06 00:08:06;;;;;;;7.32;4.32;;;;;;;18.20;100.00;96512.22;5001717;28;20231;-76
2022/09/06 00:10:33;;;;;;;5.05;4.55;;;;;;;18.10;100.00;96500.19;5003612;28;20192;-76
2022/09/06 00:13:02;;;;;;;4.47;3.87;;;;;;;18.20;100.00;96512.22;5020304;28;20243;-76
2022/09/06 00:15:30;;;;;;;4.10;3.80;;;;;;;18.27;100.00;96513.56;5009367;28;20310;-76
2022/09/06 00:18:01;;;;;;;5.80;3.87;;;;;;;18.33;100.00;96501.53;5022252;28;20203;-76
2022/09/06 00:20:29;;;;;;;6.57;4.10;;;;;;;18.34;100.00;96507.81;5021711;28;20207;-76
2022/09/06 00:22:59;;;;;;;5.83;4.10;;;;;;;18.34;100.00;96502.34;5027270;28;20215;-76
2022/09/06 00:25:26;;;;;;;4.70;4.17;;;;;;;18.29;100.00;96502.38;5002156;28;20207;-76
2022/09/06 00:27:55;;;;;;;5.47;4.17;;;;;;;18.23;100.00;96495.25;5017969;28;20253;-76
2022/09/06 00:30:22;;;;;;;4.63;4.23;;;;;;;18.21;100.00;96502.91;5006305;28;20227;-76
2022/09/06 00:32:49;;;;;;;4.93;3.90;;;;;;;18.21;100.00;96498.25;5021724;28;20223;-76
2022/09/06 00:35:17;;;;;;;4.45;3.97;;;;;;;18.19;100.00;96488.72;5004104;28;20215;-76
2022/09/06 00:37:44;;;;;;;3.83;3.53;;;;;;;18.20;100.00;96493.09;5007689;28;20203;-76
2022/09/06 00:40:14;;;;;;;5.40;3.70;;;;;;;18.28;100.00;96492.53;5008316;28;20243;-76
2022/09/06 00:42:41;;;;;;;3.80;3.50;;;;;;;18.39;100.00;96494.13;5014673;28;20250;-76
2022/09/06 00:45:10;;;;;;;4.60;4.20;;;;;;;18.35;100.00;96499.34;5003967;28;20292;-76
2022/09/06 00:47:41;;;;;;;4.17;3.77;;;;;;;18.29;100.00;96505.13;5022678;28;20211;-76
2022/09/06 00:50:11;;;;;;;5.27;3.90;;;;;;;18.27;100.00;96502.66;5022941;28;20218;-76
2022/09/06 00:52:40;;;;;;;4.15;3.63;;;;;;;18.28;100.00;96504.28;5018760;28;20212;-76
2022/09/06 00:55:07;;;;;;;4.50;4.10;;;;;;;18.25;100.00;96504.00;5001114;28;20235;-76
2022/09/06 00:57:36;;;;;;;4.13;3.80;;;;;;;18.23;100.00;96506.19;5008397;28;20223;-76
2022/09/06 01:00:07;;;;;;;4.50;3.97;;;;;;;18.23;100.00;96506.19;5008582;28;20208;-76
2022/09/06 01:02:34;;;;;;;7.37;3.50;;;;;;;18.25;100.00;96512.22;5008247;28;20211;-76
2022/09/06 01:05:02;;;;;;;4.80;3.80;;;;;;;18.29;100.00;96511.38;5022136;28;20248;-76
2022/09/06 01:07:39;;;;;;;5.18;3.42;;;;;;;18.31;100.00;96511.09;5005458;28;20211;-76
2022/09/06 01:10:24;;;;;;;3.60;3.30;;;;;;;18.36;100.00;96514.66;5006548;28;20211;-76
2022/09/06 01:13:10;;;;;;;3.63;3.33;;;;;;;18.38;100.00;96511.63;5020260;28;20211;-76
2022/09/06 01:15:49;;;;;;;3.93;3.63;;;;;;;18.43;100.00;96511.63;5023782;28;20227;-76
2022/09/06 01:18:26;;;;;;;5.45;4.35;;;;;;;18.41;100.00;96513.81;4993062;28;20262;-76
2022/09/06 01:21:10;;;;;;;3.67;3.38;;;;;;;18.37;100.00;96524.47;5025066;28;20212;-76
2022/09/06 01:23:59;;;;;;;5.15;3.80;;;;;;;18.32;100.00;96520.94;5005434;28;20207;-76
2022/09/06 01:26:52;;;;;;;6.75;3.90;;;;;;;18.26;100.00;96528.34;5003530;28;20274;-76
2022/09/06 01:29:27;;;;;;;4.32;3.92;;;;;;;18.20;100.00;96525.88;5029575;28;20210;-76
2022/09/06 01:31:58;;;;;;;4.35;3.83;;;;;;;18.12;100.00;96530.78;5022535;28;20203;-76
2022/09/06 01:34:30;;;;;;;4.20;3.78;;;;;;;18.03;100.00;96535.16;5022522;28;20234;-76
2022/09/06 01:37:02;;;;;;;7.47;4.50;;;;;;;17.94;100.00;96536.00;5001944;28;20232;-76
2022/09/06 01:39:32;;;;;;;3.83;3.53;;;;;;;17.94;100.00;96536.81;5002383;28;20227;-76
2022/09/06 01:42:03;;;;;;;4.83;4.00;;;;;;;17.91;100.00;96531.88;5004676;28;20211;-76
2022/09/06 01:44:33;;;;;;;6.50;3.90;;;;;;;17.91;100.00;96534.63;5006980;28;20204;-76
2022/09/06 01:47:09;;;;;;;4.27;3.83;;;;;;;17.91;100.00;96536.53;5006660;28;20192;-76
2022/09/06 01:49:56;;;;;;;4.70;3.80;;;;;;;17.87;100.00;96525.31;5005513;28;20225;-76
2022/09/06 01:52:33;;;;;;;4.93;3.80;;;;;;;17.84;100.00;96530.50;5002632;28;20211;-76
2022/09/06 01:55:14;;;;;;;3.87;3.57;;;;;;;17.86;100.00;96534.63;5022243;28;20224;-76
2022/09/06 01:57:53;;;;;;;4.47;3.87;;;;;;;17.89;100.00;96522.31;5000241;28;20258;-76
2022/09/06 02:00:23;;;;;;;6.20;3.90;;;;;;;17.87;100.00;96530.78;5027175;28;20218;-76
2022/09/06 02:02:59;;;;;;;5.20;3.60;;;;;;;17.87;100.00;96530.78;5006681;28;20207;-76
2022/09/06 02:05:32;;;;;;;3.87;3.53;;;;;;;17.82;100.00;96528.06;5009600;28;20207;-76
2022/09/06 02:08:04;;;;;;;4.03;3.73;;;;;;;17.76;100.00;96521.78;5025201;28;20207;-76
2022/09/06 02:10:37;;;;;;;6.57;3.70;;;;;;;17.73;100.00;96519.56;5001933;28;20259;-76
2022/09/06 02:13:07;;;;;;;7.83;4.00;;;;;;;17.72;100.00;96520.66;5016802;28;20199;-76
2022/09/06 02:15:39;;;;;;;4.97;4.00;;;;;;;17.74;100.00;96523.94;5019026;28;20215;-76
2022/09/06 02:18:10;;;;;;;4.00;3.53;;;;;;;17.73;100.00;96532.41;5006023;28;20326;-76
2022/09/06 02:20:43;;;;;;;4.67;3.60;;;;;;;17.82;100.00;96522.59;5021622;28;20250;-76
2022/09/06 02:23:12;;;;;;;6.60;3.83;;;;;;;17.90;100.00;96524.78;5007019;28;20257;-76
2022/09/06 02:25:42;;;;;;;3.93;3.53;;;;;;;18.02;100.00;96519.88;5026472;28;20210;-76
2022/09/06 02:28:10;;;;;;;5.20;4.03;;;;;;;18.13;100.00;96516.03;5029702;28;20210;-76
2022/09/06 02:30:43;;;;;;;3.93;3.50;;;;;;;18.13;100.00;96517.94;5015801;28;20211;-76
2022/09/06 02:33:14;;;;;;;4.13;3.50;;;;;;;18.09;100.00;96523.16;5020166;28;20303;-76
2022/09/06 02:35:46;;;;;;;4.67;3.70;;;;;;;18.08;100.00;96516.03;5018813;28;20245;-76
2022/09/06 02:38:13;;;;;;;4.17;3.73;;;;;;;18.09;100.00;96516.88;5021080;28;20218;-76
2022/09/06 02:40:42;;;;;;;4.77;3.83;;;;;;;18.06;100.00;96511.94;5025116;28;20203;-76
2022/09/06 02:43:09;;;;;;;3.97;3.67;;;;;;;18.02;100.00;96508.13;5024475;28;20208;-76
2022/09/06 02:45:36;;;;;;;5.70;4.07;;;;;;;17.98;100.00;96515.22;5017663;28;20210;-76
2022/09/06 02:48:05;;;;;;;5.03;3.60;;;;;;;17.97;100.00;96506.19;5003902;28;20211;-76
2022/09/06 02:50:31;;;;;;;4.30;3.90;;;;;;;17.95;100.00;96513.84;5025841;28;20214;-76
2022/09/06 02:53:03;;;;;;;4.47;3.67;;;;;;;17.96;100.00;96507.28;5001135;28;20208;-76
2022/09/06 02:55:30;;;;;;;5.30;3.80;;;;;;;18.03;100.00;96507.81;5005700;28;20309;-76
2022/09/06 02:57:57;;;;;;;6.50;3.90;;;;;;;18.09;100.00;96500.47;5020390;28;20292;-76
2022/09/06 03:00:24;;;;;;;4.17;3.77;;;;;;;18.13;100.00;96507.84;5018972;28;20211;-76
2022/09/06 03:02:51;;;;;;;4.33;3.80;;;;;;;18.10;100.00;96497.47;5008735;28;20230;-76
2022/09/06 03:05:20;;;;;;;5.80;3.57;;;;;;;18.02;100.00;96508.94;5011354;28;20203;-76
2022/09/06 03:07:47;;;;;;;4.23;3.70;;;;;;;17.96;100.00;96504.56;5002054;28;20486;-76
2022/09/06 03:10:14;;;;;;;3.93;3.40;;;;;;;17.91;100.00;96510.03;5001902;28;20226;-76
2022/09/06 03:12:42;;;;;;;4.70;4.27;;;;;;;17.84;100.00;96512.22;5011518;28;20195;-76
2022/09/06 03:15:10;;;;;;;4.30;3.90;;;;;;;17.87;100.00;96519.03;5020940;28;20220;-76
2022/09/06 03:17:38;;;;;;;6.00;3.77;;;;;;;17.89;100.00;96512.22;5020273;28;20208;-76
2022/09/06 03:20:06;;;;;;;5.40;4.33;;;;;;;17.90;100.00;96513.84;5021473;28;20234;-76
2022/09/06 03:22:36;;;;;;;5.60;3.97;;;;;;;17.84;100.00;96503.19;5005826;28;20203;-76
2022/09/06 03:25:03;;;;;;;5.50;3.80;;;;;;;17.84;100.00;96495.00;5015068;28;20207;-76
2022/09/06 03:27:30;;;;;;;3.80;3.30;;;;;;;17.92;100.00;96498.00;5018234;28;20212;-76
2022/09/06 03:29:57;;;;;;;4.47;3.87;;;;;;;17.93;100.00;96496.94;5028424;28;20199;-76
2022/09/06 03:32:24;;;;;;;4.80;3.77;;;;;;;17.85;100.00;96492.00;5006549;28;20207;-76
2022/09/06 03:34:51;;;;;;;5.87;4.40;;;;;;;17.79;100.00;96501.28;5001583;28;20218;-76
2022/09/06 03:37:19;;;;;;;4.70;4.23;;;;;;;17.67;100.00;96498.81;5020448;28;20212;-76
2022/09/06 03:39:47;;;;;;;5.37;3.80;;;;;;;17.59;100.00;96487.59;5018635;28;20231;-76
2022/09/06 03:42:14;;;;;;;4.77;3.67;;;;;;;17.66;100.00;96501.81;5015901;28;20204;-76
2022/09/06 03:44:41;;;;;;;4.90;3.77;;;;;;;17.67;100.00;96503.47;5005748;28;20203;-76
2022/09/06 03:47:08;;;;;;;7.47;4.00;;;;;;;17.70;100.00;96509.19;5010297;28;20226;-76
2022/09/06 03:49:35;;;;;;;4.73;3.83;;;;;;;17.72;100.00;96506.19;5007463;28;20218;-76
2022/09/06 03:52:03;;;;;;;4.00;3.70;;;;;;;17.68;100.00;96508.66;5019221;28;20203;-76
2022/09/06 03:54:30;;;;;;;4.77;4.17;;;;;;;17.66;100.00;96502.63;5009808;28;20207;-76
2022/09/06 03:56:58;;;;;;;4.27;3.80;;;;;;;17.64;100.00;96498.53;5026099;28;20254;-76
2022/09/06 03:59:25;;;;;;;6.30;3.77;;;;;;;17.65;100.00;96498.25;5020408;28;20196;-76
2022/09/06 04:01:52;;;;;;;5.63;3.70;;;;;;;17.59;100.00;96491.13;5008721;28;20215;-76
2022/09/06 04:04:25;;;;;;;7.63;4.13;;;;;;;17.61;100.00;96482.66;5001037;28;20214;-76
2022/09/06 04:06:52;;;;;;;4.30;3.50;;;;;;;17.67;100.00;96481.63;5019047;28;20210;-76
2022/09/06 04:09:19;;;;;;;3.70;3.40;;;;;;;17.70;100.00;96478.31;5006181;28;20203;-76
2022/09/06 04:11:47;;;;;;;3.60;3.30;;;;;;;17.72;100.00;96478.88;5026969;28;20208;-76
2022/09/06 04:14:15;;;;;;;4.77;3.70;;;;;;;17.74;100.00;96477.53;5025551;28;20289;-76
2022/09/06 04:16:42;;;;;;;8.77;3.70;;;;;;;17.83;100.00;96487.91;4999376;28;20235;-76
2022/09/06 04:19:09;;;;;;;4.33;3.53;;;;;;;17.80;100.00;96483.78;5016918;28;20219;-76
2022/09/06 04:21:36;;;;;;;3.93;3.57;;;;;;;17.80;100.00;96481.06;5022289;28;20215;-76
2022/09/06 04:24:03;;;;;;;4.10;3.70;;;;;;;17.71;100.00;96474.50;5006234;28;20210;-76
2022/09/06 04:26:30;;;;;;;5.03;3.80;;;;;;;17.67;100.00;96482.44;5025752;28;20277;-76
2022/09/06 04:29:00;;;;;;;5.00;3.93;;;;;;;17.63;100.00;96485.97;5003088;28;20207;-76
2022/09/06 04:31:29;;;;;;;5.50;3.87;;;;;;;17.62;100.00;96487.88;5016878;28;20239;-76
2022/09/06 04:33:56;;;;;;;3.80;3.40;;;;;;;17.66;100.00;96496.34;5021698;28;20191;-76
2022/09/06 04:36:23;;;;;;;3.63;3.33;;;;;;;17.71;100.00;96499.91;5018845;28;20266;-76
2022/09/06 04:38:50;;;;;;;3.47;3.17;;;;;;;17.77;100.00;96498.84;5028436;28;20235;-76
2022/09/06 04:41:18;;;;;;;4.03;3.63;;;;;;;17.85;100.00;96497.47;5011264;28;20202;-75
2022/09/06 04:43:45;;;;;;;3.83;3.40;;;;;;;17.82;100.00;96494.44;5006368;28;20215;-75
2022/09/06 04:46:19;;;;;;;4.90;3.07;;;;;;;17.85;100.00;96493.91;5000994;28;20218;-75
2022/09/06 04:48:48;;;;;;;5.50;3.00;;;;;;;17.84;100.00;96495.81;5020046;28;20210;-75
2022/09/06 04:51:15;;;;;;;3.70;3.30;;;;;;;17.81;100.00;96493.63;5010251;28;20211;-75
2022/09/06 04:53:42;;;;;;;3.70;3.40;;;;;;;17.80;100.00;96494.72;5007441;28;20293;-76
2022/09/06 04:56:13;;;;;;;4.70;3.50;;;;;;;17.80;100.00;96486.53;5017763;28;20226;-76
2022/09/06 04:58:40;;;;;;;5.20;3.27;;;;;;;17.88;100.00;96488.72;5006694;28;20207;-76
2022/09/06 05:01:07;;;;;;;4.57;3.30;;;;;;;17.86;100.00;96490.09;5010098;28;20207;-76
2022/09/06 05:03:34;;;;;;;6.50;3.77;;;;;;;17.88;100.00;96494.19;5006558;28;20199;-76
2022/09/06 05:06:10;;;;;;;4.33;3.20;;;;;;;17.90;100.00;96497.47;5013220;28;20198;-76
2022/09/06 05:08:38;;;;;;;4.23;3.43;;;;;;;17.89;100.00;96495.00;5018374;28;20206;-76
2022/09/06 05:11:05;;;;;;;4.27;3.20;;;;;;;17.90;100.00;96497.47;5004141;28;20349;-76
2022/09/06 05:13:33;;;;;;;3.93;3.20;;;;;;;17.98;100.00;96494.19;5007260;28;20212;-76
2022/09/06 05:16:01;;;;;;;4.03;2.97;;;;;;;18.06;100.00;96484.59;5005209;28;20230;-76
2022/09/06 05:18:29;;;;;;;3.40;3.10;;;;;;;18.07;100.00;96481.63;5029178;28;20227;-76
2022/09/06 05:20:57;;;;;;;3.83;2.90;;;;;;;18.13;100.00;96493.34;5015485;28;20203;-76
2022/09/06 05:23:26;;;;;;;6.47;3.47;;;;;;;18.19;100.00;96496.91;5004914;28;20226;-76
2022/09/06 05:25:54;;;;;;;6.73;3.20;;;;;;;18.26;100.00;96489.25;5002283;28;20203;-76
2022/09/06 05:28:21;;;;;;;4.17;3.23;;;;;;;18.30;99.62;96495.78;5018825;28;20215;-76
2022/09/06 05:30:48;;;;;;;3.27;2.97;;;;;;;18.35;99.00;96487.59;5004598;28;20296;-76
2022/09/06 05:33:20;;;;;;;4.40;2.93;;;;;;;18.40;98.86;96491.13;5028500;28;20195;-76
2022/09/06 05:35:48;;;;;;;5.63;3.40;;;;;;;18.41;98.91;96486.47;5023891;28;20235;-76
2022/09/06 05:38:15;;;;;;;4.30;3.27;;;;;;;18.41;99.32;96483.75;5016740;28;20195;-76
2022/09/06 05:40:44;;;;;;;4.77;3.27;;;;;;;18.38;100.00;96487.03;5004706;28;20208;-76
2022/09/06 05:43:11;;;;;;;3.90;3.47;;;;;;;18.38;100.00;96489.75;5004175;28;20489;-76
2022/09/06 05:45:38;;;;;;;5.97;3.10;;;;;;;18.40;100.00;96482.09;5014530;28;20209;-76
2022/09/06 05:48:05;;;;;;;3.50;3.20;;;;;;;18.40;100.00;96485.66;5019931;28;20210;-76
2022/09/06 05:50:32;;;;;;;3.30;3.00;;;;;;;18.45;100.00;96482.13;5011745;28;20215;-76
2022/09/06 05:52:59;;;;;;;3.87;2.70;;;;;;;18.47;100.00;96483.44;5011020;28;20206;-76
2022/09/06 05:55:26;;;;;;;3.63;3.25;;;;;;;18.51;100.00;96494.66;5003718;28;20306;-76
2022/09/06 05:57:54;;;;;;;3.33;3.03;;;;;;;18.54;100.00;96496.88;5022704;28;20250;-76
2022/09/06 06:00:21;;;;;;;5.53;3.35;;;;;;;18.55;100.00;96498.47;5005414;28;20203;-76
2022/09/06 06:02:49;;;;;;;3.20;2.90;;;;;;;18.57;100.00;96496.31;5002866;28;20202;-76
2022/09/06 06:05:16;;;;;;;3.35;3.05;;;;;;;18.59;100.00;96493.31;5003462;28;20215;-76
2022/09/06 06:07:44;;;;;;;3.43;2.60;;;;;;;18.67;100.00;96492.75;5007077;28;20299;-76
2022/09/06 06:10:11;;;;;;;3.33;3.03;;;;;;;18.71;99.76;96489.19;5021504;28;20210;-76
2022/09/06 06:12:39;;;;;;;3.67;3.20;;;;;;;18.75;98.65;96495.72;5006162;28;20195;-76
2022/09/06 06:15:08;;;;;;;3.92;2.63;;;;;;;18.90;99.58;96492.94;5021129;28;20207;-76
2022/09/06 06:17:35;;;;;;;3.20;2.90;;;;;;;18.92;99.34;96491.84;5018314;28;20235;-76
2022/09/06 06:20:03;;;;;;;3.08;2.70;;;;;;;19.03;97.79;96493.44;5002464;28;20275;-76
2022/09/06 06:22:30;;;;;;;6.95;2.88;;;;;;;19.12;96.82;96503.53;5006719;28;20208;-76
2022/09/06 06:24:57;;;;;;;3.40;2.50;;;;;;;19.16;96.72;96506.50;4999425;28;20219;-76
2022/09/06 06:27:24;;;;;;;3.03;2.70;;;;;;;19.22;97.27;96492.50;5020731;28;20217;-76
2022/09/06 06:29:51;;;;;;;4.22;2.80;;;;;;;19.24;98.40;96500.44;5000456;28;20207;-76
2022/09/06 06:32:19;;;;;;;3.42;3.10;;;;;;;19.28;99.47;96509.75;5005877;28;20204;-76
2022/09/06 06:34:47;;;;;;;3.80;3.30;;;;;;;19.31;99.15;96516.59;5021729;28;20206;-76
2022/09/06 06:37:14;;;;;;;4.68;3.22;;;;;;;19.33;99.92;96515.19;5002780;28;20290;-76
2022/09/06 06:39:41;;;;;;;5.55;3.70;;;;;;;19.35;100.00;96504.78;5019751;28;20231;-76
2022/09/06 06:42:09;;;;;;;4.50;3.17;;;;;;;19.34;100.00;96505.88;5007026;28;20307;-76
2022/09/06 06:44:51;;;;;;;3.30;3.00;;;;;;;19.37;100.00;96505.31;5019771;28;20242;-76
2022/09/06 06:47:21;;;;;;;6.97;3.15;;;;;;;19.45;100.00;96507.47;5003489;28;20257;-76
2022/09/06 06:49:48;;;;;;;4.03;3.08;;;;;;;19.40;100.00;96509.41;5000013;28;20204;-76
2022/09/06 06:52:15;;;;;;;4.75;3.22;;;;;;;19.39;100.00;96514.06;5016490;28;20216;-76
2022/09/06 06:54:42;;;;;;;7.20;3.50;;;;;;;19.41;100.00;96514.59;5019911;28;20195;-76
2022/09/06 06:57:09;;;;;;;6.70;3.55;;;;;;;19.48;100.00;96512.38;5020362;28;20223;-76
2022/09/06 06:59:37;;;;;;;5.45;3.38;;;;;;;19.51;100.00;96511.00;4999035;28;20223;-76
2022/09/06 07:02:04;;;;;;;6.53;4.10;;;;;;;19.52;100.00;96504.44;5004521;28;20285;-76
2022/09/06 07:04:33;;;;;;;10.15;4.07;;;;;;;19.56;100.00;96505.53;5001252;28;20219;-76
2022/09/06 07:07:00;;;;;;;6.32;3.40;;;;;;;19.64;100.00;96505.75;4998587;28;20204;-76
2022/09/06 07:09:27;;;;;;;7.63;3.65;;;;;;;19.69;100.00;96509.53;5019606;28;20210;-76
2022/09/06 07:11:54;;;;;;;4.68;3.53;;;;;;;19.72;100.00;96498.84;5011862;28;20326;-76
2022/09/06 07:14:21;;;;;;;5.70;3.40;;;;;;;19.84;100.00;96498.47;4997895;28;20224;-76
2022/09/06 07:16:50;;;;;;;5.60;3.65;;;;;;;19.89;100.00;96495.69;5005025;28;20207;-76
2022/09/06 07:19:17;;;;;;;4.63;3.50;;;;;;;19.91;100.00;96498.94;5003772;28;20202;-76
2022/09/06 07:21:45;;;;;;;10.40;4.28;;;;;;;19.90;100.00;96492.69;5004377;28;20199;-76
2022/09/06 07:24:13;;;;;;;5.93;3.83;;;;;;;19.90;100.00;96492.69;5009249;28;20199;-76
2022/09/06 07:26:40;;;;;;;7.07;4.90;;;;;;;19.80;100.00;96494.66;5006246;28;20223;-76
2022/09/06 07:29:08;;;;;;;5.15;4.10;;;;;;;19.63;100.00;96487.66;5021682;28;20214;-76
2022/09/06 07:31:37;;;;;;;6.03;4.10;;;;;;;19.49;100.00;96481.16;5001898;28;20280;-76
2022/09/06 07:34:05;;;;;;;3.92;3.50;;;;;;;19.37;100.00;96477.94;5022236;28;20222;-76
2022/09/06 07:36:32;;;;;;;6.28;3.85;;;;;;;19.32;100.00;96479.88;5018840;28;20269;-76
2022/09/06 07:39:00;;;;;;;5.80;3.95;;;;;;;19.25;100.00;96475.53;5010097;28;20231;-76
2022/09/06 07:41:27;;;;;;;4.93;3.45;;;;;;;19.25;100.00;96474.72;5020236;28;20239;-76
2022/09/06 07:43:54;;;;;;;6.57;3.40;;;;;;;19.24;100.00;96473.06;5002896;28;20209;-76
2022/09/06 07:46:22;;;;;;;4.30;3.50;;;;;;;19.17;100.00;96467.09;5004748;28;20203;-76
2022/09/06 07:48:49;;;;;;;5.05;3.72;;;;;;;19.10;100.00;96467.41;5024366;28;20211;-76
2022/09/06 07:51:18;;;;;;;3.63;3.33;;;;;;;19.06;100.00;96463.56;5007309;28;20250;-76
2022/09/06 07:53:49;;;;;;;4.68;4.22;;;;;;;19.03;100.00;96466.06;5021134;28;20210;-76
2022/09/06 07:56:20;;;;;;;3.75;3.33;;;;;;;18.91;100.00;96469.13;4999917;28;20254;-76
2022/09/06 07:58:48;;;;;;;3.45;3.15;;;;;;;18.85;100.00;96456.56;5006607;28;20214;-75
2022/09/06 08:01:24;;;;;;;3.50;3.20;;;;;;;19.09;100.00;96443.88;5004305;28;20221;-76
2022/09/06 08:03:51;;;;;;;17.45;6.70;;;;;;;19.37;100.00;96456.03;5021648;28;20211;-76
2022/09/06 08:06:18;;;;;;;16.63;5.93;;;;;;;19.73;100.00;96455.81;5008381;28;20207;-76
2022/09/06 08:08:46;;;;;;;10.18;4.63;;;;;;;20.00;100.00;96454.19;5020057;28;20208;-76
2022/09/06 08:11:13;;;;;;;15.25;5.07;;;;;;;20.23;100.00;96451.81;5004032;28;20203;-76
2022/09/06 08:13:42;;;;;;;11.80;4.60;;;;;;;20.46;100.00;96450.25;5006653;28;20273;-76
2022/09/06 08:16:11;;;;;;;17.08;5.72;;;;;;;20.78;100.00;96453.16;5006349;28;20215;-76
2022/09/06 08:18:38;;;;;;;14.82;5.05;;;;;;;21.17;100.00;96447.50;5006731;28;20216;-75
2022/09/06 08:21:07;;;;;;;11.32;4.38;;;;;;;21.53;100.00;96443.13;5008451;28;20207;-76
2022/09/06 08:23:34;;;;;;;12.25;4.20;;;;;;;21.73;96.30;96447.50;5005806;28;20298;-76
2022/09/06 08:26:01;;;;;;;9.23;4.10;;;;;;;22.02;98.08;96450.09;5004802;28;20211;-76
2022/09/06 08:28:28;;;;;;;11.60;4.15;;;;;;;22.31;95.91;96449.84;5004530;28;20470;-76
2022/09/06 08:31:05;;;;;;;14.48;5.20;;;;;;;22.56;93.80;96448.56;5023019;28;20208;-76
2022/09/06 08:33:32;;;;;;;16.70;5.88;;;;;;;22.81;93.62;96450.03;5022798;28;20210;-76
2022/09/06 08:35:59;;;;;;;22.17;5.82;;;;;;;23.08;91.99;96452.78;5025736;28;20270;-76
2022/09/06 08:38:27;;;;;;;11.65;4.20;;;;;;;23.38;86.55;96452.13;5004355;28;20220;-76
2022/09/06 08:41:06;;;;;;;13.52;3.97;;;;;;;23.72;82.56;96464.63;5001987;28;20207;-76
2022/09/06 08:43:34;;;;;;;15.15;4.38;;;;;;;23.89;81.08;96453.75;5015258;28;20216;-76
2022/09/06 08:46:03;;;;;;;13.98;3.97;;;;;;;24.19;79.18;96465.13;5020282;28;20211;-76
2022/09/06 08:48:33;;;;;;;10.23;3.85;;;;;;;24.25;77.70;96455.63;5007333;28;20254;-76
2022/09/06 08:51:22;;;;;;;12.98;4.18;;;;;;;24.24;75.62;96460.34;5006280;28;20230;-76
2022/09/06 08:53:49;;;;;;;17.13;4.40;;;;;;;24.49;76.68;96467.16;5002699;28;20290;-76
2022/09/06 08:56:23;;;;;;;20.38;4.00;;;;;;;24.63;75.79;96472.59;5014253;28;20223;-76
2022/09/06 08:59:03;;;;;;;12.45;3.78;;;;;;;24.76;75.64;96472.47;5004281;28;20214;-76
2022/09/06 09:01:41;;;;;;;11.52;3.83;;;;;;;24.89;75.45;96463.28;5018559;28;20211;-76
2022/09/06 09:04:13;;;;;;;9.07;3.90;;;;;;;25.09;73.00;96475.75;5022955;28;20215;-76
2022/09/06 09:06:40;;;;;;;13.80;4.05;;;;;;;25.24;71.69;96474.50;5022443;28;20203;-76
2022/09/06 09:09:10;;;;;;;12.20;3.45;;;;;;;25.43;71.98;96482.50;5023364;28;20199;-76
2022/09/06 09:11:42;;;;;;;10.75;3.85;;;;;;;25.61;71.56;96471.16;5025609;28;20219;-76
2022/09/06 09:14:16;;;;;;;8.10;3.55;;;;;;;25.54;70.72;96476.34;5015893;28;20302;-76
2022/09/06 09:16:45;;;;;;;8.27;3.88;;;;;;;25.59;70.38;96479.00;5016591;28;20292;-76
2022/09/06 09:19:13;;;;;;;9.18;3.95;;;;;;;25.77;69.77;96467.94;5010149;28;20208;-76
2022/09/06 09:21:40;;;;;;;12.52;3.75;;;;;;;25.70;70.38;96473.13;5006807;28;20200;-76
2022/09/06 09:24:09;;;;;;;14.25;4.20;;;;;;;25.65;68.12;96465.00;5024453;28;20227;-76
2022/09/06 09:26:43;;;;;;;5.75;3.53;;;;;;;25.76;67.58;96472.66;5003883;28;20219;-76
2022/09/06 09:29:12;;;;;;;6.10;3.70;;;;;;;25.93;68.11;96469.91;5001108;28;20211;-76
2022/09/06 09:31:41;;;;;;;6.35;3.30;;;;;;;26.00;65.72;96461.09;5018521;28;20911;-76
2022/09/06 09:34:13;;;;;;;9.05;2.97;;;;;;;25.93;61.99;96456.06;5005211;28;20265;-76
2022/09/06 09:36:40;;;;;;;7.45;3.15;;;;;;;26.06;62.76;96458.97;4997294;28;20427;-76
2022/09/06 09:39:11;;;;;;;7.38;3.28;;;;;;;26.12;61.21;96449.34;5020638;28;20238;-76
2022/09/06 09:41:42;;;;;;;9.93;3.40;;;;;;;26.24;62.76;96449.50;5019756;28;20227;-76
2022/09/06 09:44:16;;;;;;;8.60;3.65;;;;;;;26.35;64.00;96456.38;5015822;28;20267;-76
2022/09/06 09:46:45;;;;;;;8.38;3.42;;;;;;;26.23;66.45;96459.78;4993792;28;20338;-76
2022/09/06 09:49:27;;;;;;;8.05;3.28;;;;;;;26.23;68.43;96458.94;5022802;28;20200;-76
2022/09/06 09:52:06;;;;;;;8.57;3.72;;;;;;;25.91;69.78;96468.59;5003074;28;20203;-76
2022/09/06 09:54:37;;;;;;;11.75;3.55;;;;;;;25.75;69.58;96454.44;5001985;28;20214;-76
2022/09/06 09:57:08;;;;;;;8.93;3.90;;;;;;;25.53;71.02;96449.81;5023711;28;20231;-76
2022/09/06 09:59:43;;;;;;;7.93;3.58;;;;;;;25.56;70.94;96449.19;4995008;28;20215;-76
2022/09/06 10:02:19;;;;;;;5.20;3.50;;;;;;;25.33;72.99;96447.69;5016417;28;20210;-76
2022/09/06 10:04:50;;;;;;;9.57;4.22;;;;;;;25.19;75.42;96446.97;5000697;28;20310;-77
2022/09/06 10:07:19;;;;;;;6.47;3.45;;;;;;;25.22;75.24;96440.81;5004830;28;20203;-76
2022/09/06 10:09:48;;;;;;;4.13;3.50;;;;;;;25.49;75.55;96432.25;4999307;28;20231;-77
2022/09/06 10:12:27;;;;;;;10.13;3.92;;;;;;;25.82;75.00;96431.81;5002930;28;20265;-77
2022/09/06 10:14:55;;;;;;;8.85;3.63;;;;;;;26.01;74.41;96424.00;5017691;28;20207;-77
2022/09/06 10:17:29;;;;;;;9.13;3.75;;;;;;;26.14;73.73;96431.28;5017515;28;20254;-77
2022/09/06 10:20:01;;;;;;;8.77;3.90;;;;;;;26.26;73.24;96425.13;5019712;28;20207;-77
2022/09/06 10:22:31;;;;;;;7.78;3.80;;;;;;;26.35;71.10;96426.75;5005375;28;20286;-77
2022/09/06 10:25:33;;;;;;;5.78;3.30;;;;;;;26.46;71.94;96421.63;5004304;28;20238;-77
2022/09/06 10:28:37;;;;;;;9.02;3.55;;;;;;;26.78;70.91;96414.69;5004880;28;20209;-77
2022/09/06 10:31:51;;;;;;;7.68;3.42;;;;;;;26.81;69.88;96407.66;5003129;28;20628;-77
2022/09/06 10:34:41;;;;;;;7.53;3.70;;;;;;;26.83;71.34;96405.38;4931338;28;20216;-77
2022/09/06 10:37:24;;;;;;;5.95;3.20;;;;;;;27.00;68.73;96403.38;5020339;28;20281;-77
2022/09/06 10:39:57;;;;;;;10.07;3.60;;;;;;;27.35;69.20;96395.66;5019285;28;20262;-77
2022/09/06 10:42:33;;;;;;;7.78;3.55;;;;;;;27.39;67.50;96395.81;5023323;28;20227;-77
2022/09/06 10:45:23;;;;;;;8.40;3.58;;;;;;;27.48;67.55;96399.28;5017216;28;20206;-77
2022/09/06 10:48:00;;;;;;;13.13;4.00;;;;;;;27.47;68.10;96397.69;5005144;28;20211;-77
2022/09/06 10:50:48;;;;;;;6.55;3.53;;;;;;;27.71;66.62;96394.28;5004168;28;20307;-77
2022/09/06 10:53:41;;;;;;;8.15;3.92;;;;;;;27.85;66.32;96384.50;4998169;28;20207;-77
2022/09/06 10:56:13;;;;;;;8.48;3.42;;;;;;;27.95;65.19;96386.06;5003389;28;20310;-77
2022/09/06 10:58:49;;;;;;;9.13;4.00;;;;;;;27.93;66.91;96390.31;5015253;28;20226;-77
2022/09/06 11:01:27;;;;;;;8.00;3.80;;;;;;;27.96;66.19;96384.09;5021680;28;20211;-77
2022/09/06 11:03:59;;;;;;;13.05;3.92;;;;;;;28.02;67.74;96374.41;5016083;28;20222;-77
2022/09/06 11:06:31;;;;;;;6.00;3.22;;;;;;;28.08;66.95;96373.00;5007782;28;20265;-77
2022/09/06 11:09:09;;;;;;;7.97;3.50;;;;;;;28.29;65.24;96357.16;5001215;28;20217;-77
2022/09/06 11:11:44;;;;;;;9.23;3.60;;;;;;;28.43;65.60;96365.16;4997154;28;20561;-77
2022/09/06 11:14:14;;;;;;;7.50;3.72;;;;;;;28.50;65.24;96357.06;5013773;28;20230;-76
2022/09/06 11:16:48;;;;;;;7.28;3.10;;;;;;;28.50;65.09;96357.06;5008013;28;20299;-76
2022/09/06 11:19:21;;;;;;;9.00;3.75;;;;;;;28.67;63.70;96351.28;5005135;28;20251;-76
2022/09/06 11:22:20;;;;;;;9.15;3.92;;;;;;;28.72;64.31;96345.53;5020802;28;20207;-76
2022/09/06 11:25:15;;;;;;;10.02;3.58;;;;;;;28.75;63.67;96341.25;5005144;28;20215;-76
2022/09/06 11:27:46;;;;;;;9.35;3.88;;;;;;;28.71;64.47;96340.31;5000059;28;20207;-76
2022/09/06 11:30:15;;;;;;;7.53;3.53;;;;;;;28.66;64.59;96343.31;5017832;28;20203;-76
2022/09/06 11:32:47;;;;;;;7.15;3.55;;;;;;;28.66;62.97;96340.56;5000581;28;20342;-76
2022/09/06 11:35:23;;;;;;;7.47;3.47;;;;;;;28.71;63.36;96343.09;4999371;28;20217;-77
2022/09/06 11:38:00;;;;;;;7.18;3.63;;;;;;;28.75;64.19;96339.25;5016730;28;20247;-76
2022/09/06 11:40:35;;;;;;;10.63;3.72;;;;;;;28.61;64.09;96339.59;5006127;28;20231;-76
2022/09/06 11:43:16;;;;;;;12.75;3.58;;;;;;;28.40;64.15;96347.25;5004752;28;20212;-76